Terminal Aerodrome Forecast
Issued by NWS

Home | Current Version | Previous Version | Text Only | Print | Product List | Glossary On
Versions: 1 2 3 4 5 6 7 8 9 10 11 12 13 14 15 16 17 18 19 20 21 22 23 24 25
840
FTUS44 KFWD 130520
TAFAFW
TAF
KAFW 130520Z 1306/1406 05008KT P6SM SKC
     FM131700 12010KT P6SM BKN045
     FM132100 14013KT P6SM BKN035
     FM140200 16015KT P6SM BKN022=

USA.gov is the U.S. government's official web portal to all federal, state and local government web resources and services.